Tiempo atmosférico en la estación meteorológica de Málaga, Centro Meteorológico, Málaga (60 m.)



Fecha
DESCASC
Temp. máxima en grados centígrados (hora)
DESCASC
Temp. mínima en grados centígrados (hora)
DESCASC
Temp. media en grados centígrados
DESCASC
Racha de viento máxima en m/sg (hora)
DESCASC
Velocidad máxima media en intervalos de 10 minutos(hora)
DESCASC
Precipitaciones diarias en mm
DESCASC
Precipitaciones de 00:00 a 06:00 en mm
DESCASC
Precipitaciones de 06:00 a 12:00 en mm
DESCASC
Precipitaciones de 12:00 a 18:00 en mm
DESCASC
Precipitaciones de 18:00 a 24:00 en mm
DESCASC
17-10-2019 29.2 (17:10) 12.8 (08:00) 21 8.33 (13:30) 4.72 (17:20) 0 0 0 0 0
16-10-2019 25.6 (13:50) 12.1 (05:40) 18.9 5.83 (16:20) 3.89 (16:20) 0 0 0 0 0
15-10-2019 25.3 (15:10) 15.6 (08:20) 20.4 10.28 (08:20) 6.67 (08:30) 0 0 0 0 0
14-10-2019 29.3 (17:00) 20.1 (23:40) 24.7 10.28 (16:30) 6.39 (17:30) 0.1 0.1 0 0 0
13-10-2019 26.9 (13:50) 17.9 (00:00) 22.4 6.11 (15:20) 3.61 (16:00) 0 0 0 0 0
12-10-2019 28.1 (13:50) 19.8 (00:00) 23.9 6.11 (15:10) 3.61 (15:20) 0 0 0 0 0
11-10-2019 28.3 (14:20) 21.4 (00:00) 24.8 7.22 (14:30) 4.17 (14:20) 0 0 0 0 0
10-10-2019 26.6 (15:10) 16.9 (00:00) 21.8 7.78 (17:10) 5 (14:00) 0 0 0 0 0
09-10-2019 28.3 (14:00) 16.8 (00:00) 22.5 5 (14:10) 3.33 (15:30) 0 0 0 0 0
08-10-2019 27.1 (15:40) 19.8 (00:00) 23.4 8.33 (12:30) 5 (17:40) 0 0 0 0 0
07-10-2019 31.3 (12:20) 19.1 (00:00) 25.2 6.39 (15:10) 4.44 (15:50) 0 0 0 0 0
06-10-2019 28.5 (12:00) 17.9 (00:00) 23.2 6.11 (16:00) 4.44 (16:20) 0 0 0 0 0
05-10-2019 27.6 (14:40) 18.8 (00:00) 23.2 5.28 (15:50) 3.33 (15:10) 0 0 0 0 0
04-10-2019 28.5 (12:20) 19.5 (00:00) 24 5.83 (01:30) 3.61 (14:30) 0 0 0 0 0
03-10-2019 31.6 (15:50) 19.1 (00:00) 25.4 9.44 (14:20) 5.83 (14:20) 0 0 0 0 0
02-10-2019 31.4 (15:30) 21.3 (00:00) 26.3 10.83 (14:40) 6.39 (14:30) 0 0 0 0 0
01-10-2019 34.4 (15:00) 18.5 (00:00) 26.5 10.28 (16:40) 5.56 (16:00) 0 0 0 0 0
30-09-2019 28 (18:20) 18.6 (00:00) 23.3 6.67 (16:50) 4.72 (16:50) 0 0 0 0 0
29-09-2019 27.7 (14:40) 17.7 (00:00) 22.7 5.28 (13:40) 3.33 (17:40) 0 0 0 0 0
28-09-2019 27 (17:10) 17.9 (00:00) 22.4 5.28 (15:00) 3.89 (15:20) 0 0 0 0 0
27-09-2019 26.9 (14:50) 19.4 (00:00) 23.1 5.83 (12:30) 3.61 (13:00) 0 0 0 0 0
26-09-2019 27.5 (16:20) 19.4 (00:00) 23.4 6.67 (15:20) 4.17 (14:20) 0 0 0 0 0
25-09-2019 34.1 (17:00) 22.4 (00:00) 28.2 10 (13:00) 5 (13:00) 0 0 0 0 0
24-09-2019 30.5 (13:00) 17.2 (00:00) 23.9 6.67 (14:30) 4.44 (14:30) 0 0 0 0 0
23-09-2019 29.7 (13:10) 19.3 (00:00) 24.5 7.22 (04:10) 4.17 (11:20) 0 0 0 0 0
22-09-2019 31.5 (14:40) 19.4 (00:00) 25.4 7.22 (20:20) 3.33 (14:00) 0 0 0 0 0
21-09-2019 27.6 (15:20) 21.9 (00:00) 24.8 5.83 (14:20) 3.61 (16:00) 0 0 0 0 0
20-09-2019 26.4 (18:00) 21.4 (00:00) 23.9 8.61 (14:00) 5.56 (14:00) 0 0 0 0 0

Gráficas

Temp. máximas Temp. mínimas Temp. medias Precipitaciones Rachas de viento máximas Velocidades máximas media en intervalos de 10 minutos

Datos horarios

Fecha y hora oficial Temperatura (ºC) Velocidad del viento (km/h) Dirección del viento Racha (km/h) Dirección de racha Precipitación (mm) Presión (hPa) Tendencia (hPa) Humedad (%)
2019-10-19 23:00:00 23 22 Sudoeste 40 Oeste 0 1003.5 0.2 59
2019-10-19 22:00:00 22.5 8 Sudoeste 13 Oeste 0 1003.5 0.5 59
2019-10-19 21:00:00 22.9 0 Calma 6 Sudoeste 0 1003.6 0.3 59
2019-10-19 20:00:00 24 6 Sudoeste 22 Oeste 0 1003.3 -0.1 53
2019-10-19 19:00:00 25.7 9 Oeste 21 Oeste 0 1003 -0.8 47
2019-10-19 18:00:00 26.4 7 Sudoeste 15 Oeste 0 1003.3 -1.1 46
2019-10-19 17:00:00 26.7 3 Sudoeste 17 Sudeste 0 1003.4 -2 46
2019-10-19 16:00:00 27.1 10 Sudeste 21 Sudeste 0 1003.8 -2.2 45
2019-10-19 15:00:00 28.7 13 Sur 21 Sudeste 0 1004.4 -2.3 43
2019-10-19 14:00:00 27.6 14 Sur 23 Sur 0 1005.4 -1.8 44
2019-10-19 13:00:00 27.4 3 Sudoeste 13 Sudoeste 0 1006 -1.4 43
2019-10-19 12:00:00 25.7 8 Sudoeste 17 Oeste 0 1006.7 -0.6 50
2019-10-19 11:00:00 23.3 11 Oeste 19 Oeste 0 1007.2 0.1 61
2019-10-19 10:00:00 20.4 8 Oeste 17 Noroeste 0 1007.4 0.5 73
2019-10-19 09:00:00 18.6 11 Noroeste 20 Noroeste 0 1007.3 0.2 80
2019-10-19 08:00:00 18.5 4 Noroeste 17 Oeste 0 1007.1 -0.2 80
2019-10-19 07:00:00 18.8 9 Noroeste 18 Noroeste 0 1006.9 -0.9 80
2019-10-19 06:00:00 19 10 Noroeste 15 Oeste 0 1007.1 -1.2 80
2019-10-19 05:00:00 19.3 7 Noroeste 11 Oeste 0 1007.3 -1.2 79
2019-10-19 04:00:00 19.8 7 Noroeste 15 Noroeste 0 1007.8 -1.1 79
2019-10-19 03:00:00 20 9 Oeste 18 Oeste 0 1008.3 -1.1 79
2019-10-19 02:00:00 20.6 5 Noroeste 15 Oeste 0 1008.5 -1.2 76
2019-10-19 01:00:00 20.7 8 Oeste 13 Oeste 0 1008.9 -0.7 77
2019-10-19 00:00:00 19.4 0 Calma 5 Norte 0 1009.4 -0.1 89
2019-10-18 23:00:00 19.7 2 Noroeste 6 Noroeste 0 1009.7 0.8 89
2019-10-18 22:00:00 20 0 Calma 10 Sudeste 0 1009.6 0.7 88
2019-10-18 21:00:00 20.3 7 Sudeste 12 Este 0 1009.5 0.5 86
2019-10-18 20:00:00 21.2 8 Este 15 Este 0 1008.9 -0.6 77
2019-10-18 19:00:00 22.5 8 Este 15 Este 0 1008.9 -0.9 68
2019-10-18 18:00:00 23.6 9 Este 18 Este 0 1009 -1.6 61
2019-10-18 17:00:00 24.4 14 Este 19 Este 0 1009.5 -2 55
2019-10-18 16:00:00 24 12 Este 21 Este 0 1009.8 -1.5 56
2019-10-18 15:00:00 23.5 13 Este 22 Este 0 1010.6 -1.3 56
2019-10-18 14:00:00 24 14 Este 26 Oeste 0 1011.5 -1.2 53
2019-10-18 13:00:00 28.7 16 Oeste 26 Oeste 0 1011.3 -1.5 44
2019-10-18 12:00:00 26.5 13 Oeste 19 Oeste 0 1011.9 -0.4 49
2019-10-18 11:00:00 22.4 10 Oeste 18 Oeste 0 1012.7 0.2 53
2019-10-18 10:00:00 19.9 6 Noroeste 14 Oeste 0 1012.8 0.7 52
2019-10-18 09:00:00 18 5 Noroeste 10 Noroeste 0 1012.3 0.2 53
2019-10-18 08:00:00 18.3 5 Noroeste 14 Noroeste 0 1012.5 0.3 52
2019-10-18 07:00:00 18.3 6 Noroeste 11 Noroeste 0 1012.1 -0.6 50
2019-10-18 06:00:00 18.7 5 Noroeste 10 Noroeste 0 1012.1 -0.7 49
2019-10-18 05:00:00 18.8 5 Noroeste 11 Noroeste 0 1012.2 -0.3 49
2019-10-18 04:00:00 19.1 4 Noroeste 9 Norte 0 1012.7 -0.1 46
2019-10-18 03:00:00 19.8 5 Noroeste 15 Oeste 0 1012.8 0 43
2019-10-18 02:00:00 20.6 8 Oeste 23 Oeste 0 1012.5 0.1 42
2019-10-18 01:00:00 21.4 12 Oeste 22 Oeste 0 1012.8 0.8 40
2019-10-18 00:00:00 22 14 Oeste 23 Noroeste 0 1012.8 1.4 35
2019-10-17 23:00:00 22.3 8 Oeste 14 Noroeste 0 1012.4 1.5 32
2019-10-17 22:00:00 22.7 6 Oeste 14 Noroeste 0 1012 1.3 31
2019-10-17 21:00:00 24 5 Noroeste 13 Norte 0 1011.4 0.8 28
2019-10-17 20:00:00 25.4 5 Noroeste 21 Noroeste 0 1010.9 0.4 27
2019-10-17 19:00:00 26.8 13 Oeste 26 Oeste 0 1010.7 -0.6 26
2019-10-17 18:00:00 28 14 Oeste 28 Oeste 0 1010.6 -1.1 24
2019-10-17 17:00:00 28.9 17 Oeste 28 Noroeste 0 1010.5 -2 24
2019-10-17 16:00:00 28.5 15 Oeste 29 Oeste 0 1011.3 -2 25
2019-10-17 15:00:00 28.2 16 Oeste 28 Oeste 0 1011.7 -2.2 25
2019-10-17 14:00:00 28.2 14 Oeste 30 Oeste 0 1012.5 -1.9 27
2019-10-17 13:00:00 26.5 11 Oeste 27 Oeste 0 1013.3 -1.1 32
2019-10-17 12:00:00 23.8 12 Oeste 23 Oeste 0 1013.9 0.2 38
2019-10-17 11:00:00 19.7 12 Oeste 18 Noroeste 0 1014.4 0.8 43
2019-10-17 10:00:00 18.1 10 Oeste 15 Oeste 0 1014.4 1.3 47
2019-10-17 09:00:00 14.2 5 Noroeste 12 Oeste 0 1013.7 0.6 53
2019-10-17 08:00:00 13.2 7 Oeste 12 Oeste 0 1013.6 0.3 55
2019-10-17 07:00:00 14.8 5 Noroeste 8 Noroeste 0 1013.1 -0.2 49
2019-10-17 06:00:00 15.2 3 Norte 8 Norte 0 1013.1 -0.3 49
2019-10-17 05:00:00 14.8 0 Calma 8 Norte 0 1013.3 0.1 50
2019-10-17 04:00:00 16.4 2 Norte 13 Oeste 0 1013.3 0 50
2019-10-17 03:00:00 17 5 Noroeste 10 Norte 0 1013.4 -0.4 53
2019-10-17 02:00:00 17.3 3 Noroeste 10 Noroeste 0 1013.2 -0.3 55
2019-10-17 01:00:00 17.5 5 Noroeste 9 Noroeste 0 1013.3 0.1 56
2019-10-17 00:00:00 17.3 4 Noroeste 9 Oeste 0 1013.8 1.1 58
2019-10-16 23:00:00 17.8 5 Noroeste 12 Oeste 0 1013.5 1.1 59
2019-10-16 22:00:00 18.1 4 Noroeste 9 Noroeste 0 1013.2 1 55
2019-10-16 21:00:00 19.2 0 Calma 14 Este 0 1012.7 0.5 49
2019-10-16 20:00:00 19.4 8 Este 17 Este 0 1012.4 -0.3 58
2019-10-16 19:00:00 20.4 8 Este 18 Este 0 1012.2 -0.9 55
2019-10-16 18:00:00 21.2 13 Sudeste 19 Este 0 1012.2 -1.5 49
2019-10-16 17:00:00 22.9 10 Sudeste 21 Sudeste 0 1012.7 -1.9 41
2019-10-16 16:00:00 24.1 13 Sudeste 19 Sudeste 0 1013.1 -2.1 34
2019-10-16 15:00:00 25.1 10 Sudeste 17 Sur 0 1013.7 -2 37
2019-10-16 14:00:00 24.4 9 Sudeste 16 Sudeste 0 1014.6 -1.4 34
2019-10-16 13:00:00 24.8 4 Sudoeste 12 Oeste 0 1015.2 -0.9 32
2019-10-16 12:00:00 22.5 10 Oeste 17 Oeste 0 1015.7 0.1 38
2019-10-16 11:00:00 20.2 10 Oeste 14 Oeste 0 1016 0.7 42
2019-10-16 10:00:00 16.4 9 Oeste 13 Oeste 0 1016.1 0.9 50
2019-10-16 09:00:00 13.7 6 Noroeste 13 Sudoeste 0 1015.6 0.5 53
2019-10-16 08:00:00 13.7 7 Noroeste 13 Noroeste 0 1015.3 0.1 53
2019-10-16 07:00:00 13.8 5 Noroeste 11 Noroeste 0 1015.2 -0.1 53
2019-10-16 06:00:00 13.7 6 Noroeste 13 Noroeste 0 1015.1 -0.7 53
2019-10-16 05:00:00 14 7 Oeste 10 Oeste 0 1015.2 -0.6 50
2019-10-16 04:00:00 15.4 5 Noroeste 10 Noroeste 0 1015.3 -0.4 46
2019-10-16 03:00:00 16 7 Noroeste 13 Noroeste 0 1015.8 0.2 45
2019-10-16 02:00:00 16.4 5 Noroeste 12 Noroeste 0 1015.8 0.6 43
2019-10-16 01:00:00 16.8 5 Noroeste 17 Noroeste 0 1015.7 0.9 43
2019-10-16 00:00:00 17.6 11 Oeste 18 Oeste 0 1015.6 1.3 42
2019-10-15 23:00:00 17.5 11 Oeste 21 Oeste 0 1015.2 1.6 41
2019-10-15 22:00:00 18.3 11 Oeste 18 Oeste 0 1014.8 1.6 40
2019-10-15 21:00:00 19.7 10 Oeste 18 Oeste 0 1014.3 1.6 35
2019-10-15 20:00:00 21.2 9 Oeste 19 Oeste 0 1013.6 0.8 32
2019-10-15 19:00:00 22.7 13 Oeste 23 Oeste 0 1013.2 0.2 30
2019-10-15 18:00:00 24.3 17 Oeste 33 Oeste 0 1012.7 -0.7 29
2019-10-15 17:00:00 24.5 19 Oeste 33 Oeste 0 1012.8 -1.6 30
2019-10-15 16:00:00 24.2 23 Oeste 34 Oeste 0 1013 -2.2 29
2019-10-15 15:00:00 25.2 18 Oeste 31 Oeste 0 1013.4 -2.2 29
2019-10-15 14:00:00 22.7 16 Oeste 33 Oeste 0 1014.4 -1.4 34
2019-10-15 13:00:00 21.3 20 Oeste 34 Oeste 0 1015.2 -0.3 38
2019-10-15 12:00:00 20.7 15 Oeste 33 Oeste 0 1015.6 0.8 44
2019-10-15 11:00:00 19.1 14 Oeste 30 Oeste 0 1015.8 1.4 58
2019-10-15 10:00:00 17.3 15 Oeste 27 Oeste 0 1015.5 0.9 64
2019-10-15 09:00:00 16 17 Oeste 37 Oeste 0 1014.8 0.3 67
2019-10-15 08:00:00 15.8 17 Oeste 30 Oeste 0 1014.4 0.1 68
2019-10-15 07:00:00 16.1 12 Oeste 21 Oeste 0 1014.6 0.2 68
2019-10-15 06:00:00 16.9 13 Oeste 23 Oeste 0 1014.5 0.3 67
2019-10-15 05:00:00 17.4 13 Oeste 27 Oeste 0 1014.3 0.5 64
2019-10-15 04:00:00 18.1 13 Noroeste 25 Noroeste 0 1014.4 0.6 64
2019-10-15 03:00:00 18.6 8 Noroeste 26 Noroeste 0 1014.2 0.3 64
2019-10-15 02:00:00 18.7 10 Noroeste 22 Noroeste 0 1013.8 0.7 65
2019-10-15 01:00:00 19.1 9 Noroeste 23 Noroeste 0 1013.8 1.1 62
2019-10-15 00:00:00 20.1 9 Noroeste 23 Oeste 0 1013.9 1.6 55
2019-10-14 23:00:00 20.8 6 Noroeste 21 Oeste 0 1013.1 2.1 47
2019-10-14 22:00:00 21.2 12 Oeste 27 Noroeste 0 1012.7 2.9 43
2019-10-14 21:00:00 22 14 Noroeste 30 Noroeste 0 1012.3 3 40
2019-10-14 20:00:00 23.4 9 Noroeste 28 Oeste 0 1011 1.9 41
2019-10-14 19:00:00 25.6 16 Oeste 32 Oeste 0 1009.8 0.8 35
2019-10-14 18:00:00 26.7 16 Sudoeste 36 Oeste 0 1009.3 0.2 37
2019-10-14 17:00:00 28.4 20 Sudoeste 37 Sudoeste 0 1009.1 -0.8 35
2019-10-14 16:00:00 28.3 21 Sudoeste 35 Oeste 0 1009 -1.3 37
2019-10-14 15:00:00 28.3 11 Oeste 24 Sudoeste 0 1009.1 -1 40
2019-10-14 14:00:00 26.5 8 Oeste 21 Oeste 0 1009.9 -0.1 47
2019-10-14 13:00:00 25.7 7 Oeste 15 Sudoeste 0 1010.3 0.4 53
2019-10-14 12:00:00 25.5 7 Sudoeste 18 Oeste 0 1010.1 1 53
2019-10-14 11:00:00 24.6 5 Sudoeste 9 Sudoeste 0 1010 1.1 67
2019-10-14 10:00:00 22.1 5 Nordeste 12 Nordeste 0 1009.9 0.5 91
2019-10-14 09:00:00 20.9 9 Nordeste 15 Nordeste 0 1009.1 0.1 94
2019-10-14 08:00:00 21.2 5 Nordeste 11 Nordeste 0 1008.9 0.5 94
2019-10-14 07:00:00 20.8 2 Nordeste 10 Nordeste 0 1009.4 1.2 94
2019-10-14 06:00:00 20.6 3 Noroeste 9 Sudoeste 0.1 1009 -0.2 94
2019-10-14 05:00:00 20.6 6 Oeste 15 Sudoeste 0 1008.4 -0.9 92
2019-10-14 04:00:00 21.2 0 Calma 13 Oeste 0 1008.2 -1.6 91
2019-10-14 03:00:00 21 7 Oeste 12 Sudoeste 0 1009.2 -0.7 91
2019-10-14 02:00:00 21.9 2 Oeste 6 Oeste 0 1009.3 0.1 89
2019-10-14 01:00:00 22.1 3 Oeste 7 Sur 0 1009.8 0.5 89
2019-10-14 00:00:00 22.1 4 Sudeste 12 Sur 0 1009.9 1.1 89
2019-10-13 23:00:00 22 5 Este 10 Sur 0 1009.2 0.9 90
2019-10-13 22:00:00 22 5 Sur 7 Sudeste 0 1009.3 0.5 89
2019-10-13 21:00:00 22.2 4 Sur 13 Sudeste 0 1008.8 0 89
2019-10-13 20:00:00 22.5 9 Sudeste 15 Sudeste 0 1008.3 -0.8 83
2019-10-13 19:00:00 23.7 8 Sudeste 19 Sudeste 0 1008.8 -0.6 74
2019-10-13 18:00:00 24.8 12 Sudeste 18 Sudeste 0 1008.8 -1 70
2019-10-13 17:00:00 25.5 10 Sudeste 20 Sudeste 0 1009.1 -1.7 68
2019-10-13 16:00:00 25.1 13 Sudeste 22 Sudeste 0 1009.4 -1.9 68
2019-10-13 15:00:00 26 12 Sudeste 17 Sudeste 0 1009.8 -1.6 67
2019-10-13 14:00:00 25.8 11 Sudeste 19 Sudeste 0 1010.8 -0.6 66
2019-10-13 13:00:00 26.1 10 Sudeste 17 Sudeste 0 1011.3 0.1 65
2019-10-13 12:00:00 25.6 7 Sur 14 Sur 0 1011.4 0.6 67
2019-10-13 11:00:00 22.9 4 Sudoeste 10 Oeste 0 1011.4 0.7 77
2019-10-13 10:00:00 19.8 6 Sudoeste 8 Oeste 0 1011.2 0.7 91
2019-10-13 09:00:00 18.3 3 Oeste 8 Noroeste 0 1010.8 0.6 94
2019-10-13 08:00:00 18.1 4 Noroeste 8 Noroeste 0 1010.7 0.4 94
2019-10-13 07:00:00 18.1 4 Oeste 6 Oeste 0 1010.5 -0.2 92
2019-10-13 06:00:00 19.1 2 Noroeste 9 Noroeste 0 1010.2 -0.9 92
2019-10-13 05:00:00 19.1 6 Noroeste 10 Oeste 0 1010.3 -0.9 94
2019-10-13 04:00:00 19.1 4 Oeste 10 Oeste 0 1010.7 -0.7 92
2019-10-13 03:00:00 19.4 4 Oeste 10 Sudoeste 0 1011.1 -0.3 91
2019-10-13 02:00:00 20.5 0 Calma 4 Nordeste 0 1011.2 0 91
2019-10-13 01:00:00 21 0 Calma 3 Oeste 0 1011.4 0.7 91
2019-10-13 00:00:00 21.2 0 Calma 4 Sudoeste 0 1011.4 0.8 89
2019-10-12 23:00:00 21.6 2 Sudoeste 3 Sudoeste 0 1011.2 1 88
2019-10-12 22:00:00 21.9 3 Sudeste 5 Sudeste 0 1010.7 0.7 86
2019-10-12 21:00:00 22.4 3 Sur 9 Sudeste 0 1010.6 0.8 83
2019-10-12 20:00:00 23 5 Sudeste 12 Sudeste 0 1010.2 0.3 80
2019-10-12 19:00:00 24.1 7 Sudeste 15 Sudeste 0 1010 -0.1 73
2019-10-12 18:00:00 25.7 10 Sur 17 Sudeste 0 1009.8 -0.8 65
2019-10-12 17:00:00 26.3 10 Sudeste 18 Sudeste 0 1009.9 -1.5 62
2019-10-12 16:00:00 26.1 11 Sudeste 22 Sudeste 0 1010.1 -1.6 62
2019-10-12 15:00:00 27.5 13 Sudeste 20 Sur 0 1010.6 -1.5 58
2019-10-12 14:00:00 26.5 10 Sudeste 21 Sudeste 0 1011.4 -0.7 56
2019-10-12 13:00:00 26.9 7 Sur 14 Sur 0 1011.7 0 64
2019-10-12 12:00:00 23.4 4 Sudeste 8 Sudeste 0 1012.1 1.2 82
2019-10-12 11:00:00 21.9 4 Este 8 Norte 0 1012.1 1.2 88
2019-10-12 10:00:00 20.6 0 Calma 14 Sudoeste 0 1011.7 0.8 89
2019-10-12 09:00:00 20.7 3 Nordeste 8 Nordeste 0 1010.9 -0.1 89
2019-10-12 08:00:00 20.2 4 Noroeste 15 Sudoeste 0 1010.9 -0.1 89
2019-10-12 07:00:00 20.5 4 Noroeste 13 Norte 0 1010.9 -0.7 88
2019-10-12 06:00:00 20.1 3 Noroeste 11 Oeste 0 1011 -1.5 89
2019-10-12 05:00:00 20.2 6 Oeste 8 Oeste 0 1011 -1.9 86
2019-10-12 04:00:00 20.9 0 Calma 6 Noroeste 0 1011.6 -1.4 86
2019-10-12 03:00:00 20.9 0 Calma 9 Oeste 0 1012.5 -0.9 86
2019-10-12 02:00:00 20.8 6 Oeste 8 Oeste 0 1012.9 -0.3 85
2019-10-12 01:00:00 21.7 3 Noroeste 5 Oeste 0 1013 0.2 82
2019-10-12 00:00:00 21.9 3 Nordeste 8 Nordeste 0 1013.4 1.1 82
2019-10-11 23:00:00 22 3 Este 10 Sudeste 0 1013.2 1.5 82
2019-10-11 22:00:00 22.3 4 Sudeste 9 Sudeste 0 1012.8 0.7 79
2019-10-11 21:00:00 22.6 5 Sudeste 10 Sur 0 1012.3 0 76
2019-10-11 20:00:00 23.1 4 Sur 9 Sur 0 1011.7 -0.9 71
2019-10-11 19:00:00 23.7 4 Sudeste 13 Sudeste 0 1012.1 -1.1 68
2019-10-11 18:00:00 24.9 9 Sudeste 17 Sudeste 0 1012.3 -1.3 62
2019-10-11 17:00:00 25.5 10 Sudeste 19 Sudeste 0 1012.6 -1.6 61
2019-10-11 16:00:00 25.1 8 Sudeste 23 Sudeste 0 1013.2 -1.6 59
2019-10-11 15:00:00 26.1 15 Sudeste 26 Sudeste 0 1013.6 -1.4 52
2019-10-11 14:00:00 27 14 Sudeste 24 Sudeste 0 1014.2 -1.2 46
2019-10-11 13:00:00 26.5 10 Sur 19 Sur 0 1014.8 0.1 53
2019-10-11 12:00:00 25.1 6 Sur 12 Sur 0 1015 0.9 64
2019-10-11 11:00:00 23.6 0 Calma 8 Sudoeste 0 1015.4 1.4 74
2019-10-11 10:00:00 22.2 2 Noroeste 6 Noroeste 0 1014.7 0.9 86
2019-10-11 09:00:00 21.5 0 Calma 6 Sur 0 1014.1 0.6 88
2019-10-11 08:00:00 21.5 3 Sur 6 Sudoeste 0 1014 0.3 89
2019-10-11 07:00:00 21.5 3 Sur 5 Sur 0 1013.8 -0.1 89
2019-10-11 06:00:00 21.6 0 Calma 8 Sur 0 1013.5 -0.7 89
2019-10-11 05:00:00 22 6 Sur 17 Sudeste 0 1013.7 -0.6 89
2019-10-11 04:00:00 22 9 Sudeste 15 Sudeste 0 1013.9 -0.6 89
2019-10-11 03:00:00 22.1 7 Sudeste 17 Sudeste 0 1014.2 -0.3 89
2019-10-11 02:00:00 22.3 8 Sudeste 18 Sudeste 0 1014.3 0 88
2019-10-11 01:00:00 22.4 10 Sudeste 18 Sudeste 0 1014.5 0.7 86
2019-10-11 00:00:00 22.4 8 Sudeste 15 Sudeste 0 1014.5 1.2 86
2019-10-10 23:00:00 22.2 6 Sudeste 14 Sudeste 0 1014.3 1.4 87
2019-10-10 22:00:00 22.1 9 Sudeste 16 Sudeste 0 1013.8 1.1 86
2019-10-10 21:00:00 22.2 9 Sudeste 21 Sudeste 0 1013.3 0.6 86
2019-10-10 20:00:00 22.6 10 Sudeste 21 Este 0 1012.9 0.2 82
2019-10-10 19:00:00 23.5 11 Sudeste 23 Sudeste 0 1012.7 -0.4 76
2019-10-10 18:00:00 24.3 14 Sudeste 28 Sudeste 0 1012.7 -0.8 71
2019-10-10 17:00:00 24.9 15 Sudeste 26 Sudeste 0 1012.7 -1.2 67
2019-10-10 16:00:00 25.5 14 Sudeste 24 Sudeste 0 1013.1 -1.4 62
2019-10-10 15:00:00 25.5 15 Sudeste 26 Sudeste 0 1013.5 -1.1 62
2019-10-10 14:00:00 25.2 18 Sudeste 27 Sudeste 0 1013.9 -0.7 64
2019-10-10 13:00:00 25.9 12 Sudeste 26 Sudeste 0 1014.5 0.2 64
2019-10-10 12:00:00 25.3 10 Sudeste 20 Sudeste 0 1014.6 0.9 65
2019-10-10 11:00:00 22.7 4 Oeste 8 Sudoeste 0 1014.6 1.3 71
2019-10-10 10:00:00 20.4 4 Noroeste 10 Noroeste 0 1014.3 1.3 71
2019-10-10 09:00:00 18.3 5 Noroeste 10 Noroeste 0 1013.7 1.2 78
2019-10-10 08:00:00 17 7 Oeste 10 Oeste 0 1013.3 1 83
2019-10-10 07:00:00 17.3 6 Oeste 9 Oeste 0 1013 0.9 80
2019-10-10 06:00:00 17.8 0 Calma 8 Oeste 0 1012.5 0.4 83
2019-10-10 05:00:00 18.3 5 Oeste 8 Oeste 0 1012.3 0.5 74
2019-10-10 04:00:00 18.9 0 Calma 3 Noroeste 0 1012.1 0.4 77
2019-10-10 03:00:00 18.8 0 Calma 3 Oeste 0 1012.1 0.6 85
2019-10-10 02:00:00 20.1 0 Calma 4 Oeste 0 1011.8 0.6 92
2019-10-10 01:00:00 20.1 0 Calma 6 Sudeste 0 1011.7 0.8 92
2019-10-10 00:00:00 21 4 Sudeste 8 Sudeste 0 1011.5 1.1 93
2019-10-09 23:00:00 21.2 4 Sudeste 10 Sudeste 0 1011.2 1.3 91
2019-10-09 22:00:00 21.5 6 Sudeste 10 Sudeste 0 1010.9 1.2 88
2019-10-09 21:00:00 21.8 6 Sudeste 11 Sudeste 0 1010.4 0.8 79
2019-10-09 20:00:00 22.5 8 Sudeste 14 Este 0 1009.9 0.2 70
2019-10-09 19:00:00 23.8 10 Sudeste 18 Sudeste 0 1009.7 -0.2 62
2019-10-09 18:00:00 25.3 10 Sudeste 17 Sudeste 0 1009.6 -0.7 53
2019-10-09 17:00:00 26.4 10 Sudeste 17 Este 0 1009.7 -1.3 40
2019-10-09 16:00:00 26.9 12 Sudeste 17 Sudeste 0 1009.9 -1.7 35
2019-10-09 15:00:00 26.8 11 Sudeste 18 Este 0 1010.3 -1.6 37
2019-10-09 14:00:00 27.3 11 Sudeste 16 Sudeste 0 1011 -1 32
2019-10-09 13:00:00 26.5 8 Este 15 Sudeste 0 1011.6 -0.3 35
2019-10-09 12:00:00 26 7 Sudeste 13 Sudeste 0 1011.9 0.2 41
2019-10-09 11:00:00 24.2 4 Sudoeste 12 Oeste 0 1012 0.5 58
2019-10-09 10:00:00 21.3 7 Sudoeste 10 Sudoeste 0 1011.9 0.7 74
2019-10-09 09:00:00 17.7 5 Oeste 7 Oeste 0 1011.7 0.8 89
2019-10-09 08:00:00 16.9 6 Oeste 9 Oeste 0 1011.5 0.3 89
2019-10-09 07:00:00 17.4 3 Oeste 8 Oeste 0 1011.2 -0.1 89
2019-10-09 06:00:00 18.5 0 Calma 9 Noroeste 0 1010.9 -0.9 86
2019-10-09 05:00:00 18.4 5 Oeste 8 Oeste 0 1011.2 -1 85
2019-10-09 04:00:00 19 4 Noroeste 9 Oeste 0 1011.3 -1.1 84
2019-10-09 03:00:00 19.3 5 Oeste 10 Oeste 0 1011.8 -1 80
2019-10-09 02:00:00 20.1 3 Norte 7 Noroeste 0 1012.2 -0.4 77
2019-10-09 01:00:00 20.6 2 Oeste 5 Noroeste 0 1012.4 0.4 76
2019-10-09 00:00:00 21.3 3 Noroeste 7 Noroeste 0 1012.8 0.9 74
2019-10-08 23:00:00 21.7 0 Calma 4 Sur 0 1012.6 0.9 71
2019-10-08 22:00:00 22.1 3 Sur 9 Sudeste 0 1012 0.5 70
2019-10-08 21:00:00 22.6 5 Sudeste 12 Este 0 1011.9 0.1 68
2019-10-08 20:00:00 22.9 10 Sudeste 22 Sudeste 0 1011.7 -0.3 68
2019-10-08 19:00:00 24 12 Sudeste 25 Sudeste 0 1011.5 -1.4 67
2019-10-08 18:00:00 24.5 17 Sudeste 26 Sudeste 0 1011.8 -1.1 68
2019-10-08 17:00:00 25.3 15 Sudeste 24 Sudeste 0 1012 -1.6 64
2019-10-08 16:00:00 25.9 13 Sudeste 22 Sudeste 0 1012.9 -1.1 65
2019-10-08 15:00:00 26.2 13 Sudeste 26 Este 0 1012.9 -1 64
2019-10-08 14:00:00 25.6 15 Sudeste 29 Sudeste 0 1013.6 -0.5 68
2019-10-08 13:00:00 25.8 17 Sudeste 30 Sudeste 0 1014 -0.1 56
2019-10-08 12:00:00 26.1 14 Sudeste 24 Sudeste 0 1013.9 0.4 62
2019-10-08 11:00:00 25.3 9 Sudeste 17 Sudeste 0 1014.1 1.2 68
2019-10-08 10:00:00 22.6 5 Oeste 8 Oeste 0 1014.1 1.7 67
2019-10-08 09:00:00 20.6 4 Noroeste 9 Noroeste 0 1013.5 1.4 74
2019-10-08 08:00:00 20.2 5 Noroeste 10 Noroeste 0 1012.9 1 76
2019-10-08 07:00:00 19.8 3 Noroeste 8 Norte 0 1012.4 0.5 77
2019-10-08 06:00:00 20.1 5 Noroeste 9 Noroeste 0 1012.1 0.2 82
2019-10-08 05:00:00 20.4 3 Noroeste 8 Noroeste 0 1011.9 0.3 80
2019-10-08 04:00:00 20.3 0 Calma 9 Este 0 1011.9 0.8 86
2019-10-08 03:00:00 20.9 3 Sudeste 11 Sudeste 0 1011.9 1.5 86
2019-10-08 02:00:00 21 6 Este 11 Este 0 1011.6 1.2 85
2019-10-08 01:00:00 20.8 5 Este 7 Este 0 1011.1 1.1 83
2019-10-08 00:00:00 21.2 2 Noroeste 5 Noroeste 0 1010.4 0.9 82
2019-10-07 23:00:00 21.9 3 Oeste 5 Noroeste 0 1010.4 1.2 82
2019-10-07 22:00:00 22.6 0 Calma 6 Sudeste 0 1010 1 77
2019-10-07 21:00:00 22.9 0 Calma 7 Sudoeste 0 1009.5 0.7 73
2019-10-07 20:00:00 24.6 4 Sur 12 Sudeste 0 1009.2 0.2 61
2019-10-07 19:00:00 26.6 9 Sudeste 18 Este 0 1009 -0.2 49
2019-10-07 18:00:00 27.3 10 Este 22 Este 0 1008.8 -0.6 43
2019-10-07 17:00:00 27.3 12 Este 20 Este 0 1009 -0.6 50
2019-10-07 16:00:00 25.6 15 Este 23 Este 0 1009.2 -0.9 65
2019-10-07 15:00:00 26.2 13 Este 19 Este 0 1009.4 -0.6 64
2019-10-07 14:00:00 27.9 10 Sudeste 16 Sudeste 0 1009.6 -0.9 47
2019-10-07 13:00:00 28.5 9 Sudeste 15 Sudeste 0 1010.1 -0.4 47
2019-10-07 12:00:00 30.3 6 Oeste 14 Oeste 0 1010 -0.5 35
2019-10-07 11:00:00 26.5 5 Sudoeste 8 Noroeste 0 1010.5 0.4 41
2019-10-07 10:00:00 22.2 3 Sur 5 Sur 0 1010.5 0.7 58
2019-10-07 09:00:00 19.4 0 Calma 5 Sur 0 1010.5 0.8 79
2019-10-07 08:00:00 19.6 3 Sur 9 Sudeste 0 1010.1 0.1 77
2019-10-07 07:00:00 20.8 4 Sudeste 10 Norte 0 1009.8 -0.5 59
2019-10-07 06:00:00 21.7 6 Noroeste 11 Noroeste 0 1009.7 -1.3 49
2019-10-07 05:00:00 21.8 6 Noroeste 14 Oeste 0 1010 -1.4 50
2019-10-07 04:00:00 22.7 10 Noroeste 20 Oeste 0 1010.3 -1.6 50
2019-10-07 03:00:00 22 8 Noroeste 15 Noroeste 0 1011 -1.1 58
2019-10-07 02:00:00 21 8 Norte 15 Oeste 0 1011.4 -0.6 71
2019-10-07 01:00:00 20.4 5 Noroeste 14 Noroeste 0 1011.9 0.3 83
2019-10-07 00:00:00 20.3 3 Noroeste 8 Noroeste 0 1012.1 0.8 82
2019-10-06 23:00:00 20.5 4 Noroeste 6 Noroeste 0 1012 1 82
2019-10-06 22:00:00 21.2 2 Sudoeste 5 Sudeste 0 1011.6 0.9 79
2019-10-06 21:00:00 21.8 5 Sudeste 12 Sudeste 0 1011.3 0.8 76
2019-10-06 20:00:00 22.6 9 Sudeste 17 Sudeste 0 1011 0.3 67
2019-10-06 19:00:00 24 12 Sudeste 18 Sudeste 0 1010.7 -0.4 58
2019-10-06 18:00:00 25.5 10 Sudeste 18 Este 0 1010.5 -0.8 53
2019-10-06 17:00:00 25.7 14 Este 22 Sudeste 0 1010.7 -1.4 53
2019-10-06 16:00:00 24.7 14 Sudeste 22 Este 0 1011.1 -1.2 65
2019-10-06 15:00:00 25.9 12 Sudeste 19 Sudeste 0 1011.3 -0.8 62
2019-10-06 14:00:00 25.6 10 Sudeste 18 Sudeste 0 1012.1 0.2 59
2019-10-06 13:00:00 25.8 10 Sudeste 15 Sudeste 0 1012.3 0.5 56
2019-10-06 12:00:00 27.6 10 Sudeste 14 Sudeste 0 1012.1 0.6 41
2019-10-06 11:00:00 26.5 6 Sudoeste 11 Sudoeste 0 1011.9 0.4 47
2019-10-06 10:00:00 22.4 3 Noroeste 10 Norte 0 1011.8 1 62
2019-10-06 09:00:00 18.3 0 Calma 9 Noroeste 0 1011.5 0.6 80
2019-10-06 08:00:00 18.3 4 Noroeste 9 Noroeste 0 1011.5 1.3 83
2019-10-06 07:00:00 18.8 2 Noroeste 4 Noroeste 0 1010.8 0.4 82
2019-10-06 06:00:00 18.8 2 Oeste 6 Noroeste 0 1010.9 0.6 77
2019-10-06 05:00:00 19.7 0 Calma 4 Sur 0 1010.2 0.3 70
2019-10-06 04:00:00 21 0 Calma 8 Noroeste 0 1010.4 0.4 61
2019-10-06 03:00:00 22.1 3 Noroeste 10 Noroeste 0 1010.3 0.4 56
2019-10-06 02:00:00 22.9 9 Noroeste 14 Noroeste 0 1009.9 0.4 56
2019-10-06 01:00:00 22.8 3 Oeste 14 Oeste 0 1010 0.6 55
2019-10-06 00:00:00 23.5 9 Oeste 17 Noroeste 0 1009.9 1 53
2019-10-05 23:00:00 24.2 6 Noroeste 14 Oeste 0 1009.5 0.7 52
2019-10-05 22:00:00 23.7 4 Noroeste 10 Noroeste 0 1009.4 1.1 53
2019-10-05 21:00:00 23.4 4 Oeste 8 Oeste 0 1008.9 0.5 64
2019-10-05 20:00:00 25 3 Sur 8 Este 0 1008.8 0.5 55
2019-10-05 19:00:00 26.4 8 Sudeste 14 Este 0 1008.3 -0.5 47
2019-10-05 18:00:00 25.8 8 Este 15 Sudeste 0 1008.4 -0.7 49
2019-10-05 17:00:00 26.9 11 Sudeste 19 Sudeste 0 1008.3 -1 46
2019-10-05 16:00:00 26.6 12 Sudeste 19 Sudeste 0 1008.8 -1.1 48
2019-10-05 15:00:00 26.2 11 Sudeste 18 Este 0 1009.1 -0.9 52
2019-10-05 14:00:00 27.1 8 Sudeste 15 Sudeste 0 1009.3 -0.4 52
2019-10-05 13:00:00 26.7 7 Sudeste 14 Sudeste 0 1009.9 0.6 53
2019-10-05 12:00:00 26.6 8 Sudeste 13 Este 0 1010 0.9 47
2019-10-05 11:00:00 26 5 Oeste 13 Oeste 0 1009.7 0.9 49
2019-10-05 10:00:00 23.2 7 Oeste 12 Oeste 0 1009.3 0.8 56
2019-10-05 09:00:00 19.7 7 Oeste 11 Noroeste 0 1009.1 0.4 64
2019-10-05 08:00:00 19.8 9 Noroeste 13 Noroeste 0 1008.8 0.1 62
2019-10-05 07:00:00 19.2 6 Oeste 10 Noroeste 0 1008.5 -0.5 61
2019-10-05 06:00:00 19.7 6 Noroeste 10 Noroeste 0 1008.7 -0.7 59
2019-10-05 05:00:00 19.3 3 Noroeste 5 Noroeste 0 1008.7 -0.7 59
2019-10-05 04:00:00 20.5 0 Calma 9 Norte 0 1009 -0.9 55
2019-10-05 03:00:00 21.3 5 Noroeste 10 Noroeste 0 1009.4 -0.7 53
2019-10-05 02:00:00 20.9 5 Noroeste 10 Oeste 0 1009.4 -0.7 58
2019-10-05 01:00:00 20.3 4 Noroeste 6 Noroeste 0 1009.9 -0.1 61
2019-10-05 00:00:00 20.3 0 Calma 2 Oeste 0 1010.1 0.3 65
2019-10-04 23:00:00 21.1 0 Calma 4 Sur 0 1010.1 0.5 62
2019-10-04 22:00:00 21.6 0 Calma 3 Sur 0 1010 0.6 58
2019-10-04 21:00:00 22.1 2 Sudeste 9 Sur 0 1009.8 0.4 59
2019-10-04 20:00:00 23 6 Sudeste 13 Sudeste 0 1009.6 0.1 61
2019-10-04 19:00:00 24.4 9 Sudeste 15 Sudeste 0 1009.4 -0.6 50
2019-10-04 18:00:00 26 10 Sudeste 17 Sudeste 0 1009.4 -1.3 44
2019-10-04 17:00:00 26.7 10 Sudeste 17 Sudeste 0 1009.5 -1.8 41
2019-10-04 16:00:00 27.8 9 Sudeste 18 Sudeste 0 1010 -1.4 41
2019-10-04 15:00:00 27.3 11 Sudeste 20 Sudeste 0 1010.7 -0.8 40
2019-10-04 14:00:00 26.6 12 Sudeste 20 Sudeste 0 1011.3 -0.3 41
2019-10-04 13:00:00 27.2 10 Este 15 Sudeste 0 1011.4 -0.2 40
2019-10-04 12:00:00 28.1 3 Sudoeste 14 Oeste 0 1011.5 0 34
2019-10-04 11:00:00 26.1 10 Oeste 15 Oeste 0 1011.6 0.5 38
2019-10-04 10:00:00 23.1 6 Sudoeste 10 Sudoeste 0 1011.6 0.6 45
2019-10-04 09:00:00 20.3 5 Noroeste 11 Oeste 0 1011.5 0.8 49
2019-10-04 08:00:00 19.8 6 Noroeste 9 Noroeste 0 1011.1 0.2 49
2019-10-04 07:00:00 20.3 5 Noroeste 11 Noroeste 0 1011 0 49
2019-10-04 06:00:00 19.9 5 Noroeste 11 Noroeste 0 1010.7 -0.4 56
2019-10-04 05:00:00 20.9 2 Noroeste 8 Nordeste 0 1010.9 0 67
2019-10-04 04:00:00 21.3 6 Nordeste 13 Oeste 0 1011 -0.4 77
2019-10-04 03:00:00 22.1 3 Sur 14 Oeste 0 1011.1 -0.1 38
2019-10-04 02:00:00 23.7 7 Noroeste 21 Noroeste 0 1010.9 -0.2 37
2019-10-04 01:00:00 23.9 5 Noroeste 20 Oeste 0 1011.4 0.6 35
2019-10-04 00:00:00 25.2 10 Oeste 24 Noroeste 0 1011.2 0.9 34
2019-10-03 23:00:00 25.6 8 Noroeste 14 Noroeste 0 1011.1 1.1 34
2019-10-03 22:00:00 26.1 2 Noroeste 8 Oeste 0 1010.8 1 32
2019-10-03 21:00:00 27.3 2 Oeste 15 Oeste 0 1010.3 0.4 31
2019-10-03 20:00:00 29.1 6 Noroeste 20 Noroeste 0 1010 0 29
2019-10-03 19:00:00 30.5 5 Norte 23 Norte 0 1009.8 -0.5 28
2019-10-03 18:00:00 31.3 5 Noroeste 24 Oeste 0 1009.9 -0.9 27
2019-10-03 17:00:00 31.6 8 Noroeste 31 Noroeste 0 1010 -1.5 28
2019-10-03 16:00:00 31.3 10 Noroeste 31 Noroeste 0 1010.3 -1.8 29
2019-10-03 15:00:00 30.7 13 Noroeste 34 Oeste 0 1010.8 -1.9 28
2019-10-03 14:00:00 30.6 9 Noroeste 24 Oeste 0 1011.5 -1.5 30
2019-10-03 13:00:00 29.6 13 Oeste 23 Sudoeste 0 1012.1 -0.5 34
2019-10-03 12:00:00 26.8 12 Oeste 24 Oeste 0 1012.7 0.6 41
2019-10-03 11:00:00 22.3 11 Noroeste 20 Noroeste 0 1013 1.1 47
2019-10-03 10:00:00 20.8 10 Oeste 20 Noroeste 0 1012.6 1.1 49
2019-10-03 09:00:00 20.2 8 Noroeste 12 Noroeste 0 1012.1 0.8 49
2019-10-03 08:00:00 19.7 7 Noroeste 14 Oeste 0 1011.9 0.9 49
2019-10-03 07:00:00 20.1 10 Oeste 14 Noroeste 0 1011.5 0.6 49
2019-10-03 06:00:00 19.3 10 Oeste 15 Oeste 0 1011.3 -0.2 48
2019-10-03 05:00:00 20.9 7 Oeste 21 Noroeste 0 1011 -0.2 43
2019-10-03 04:00:00 23.1 10 Noroeste 18 Noroeste 0 1010.9 -0.5 40
2019-10-03 03:00:00 22.6 7 Oeste 16 Noroeste 0 1011.5 0.3 38
2019-10-03 02:00:00 24.2 7 Noroeste 15 Noroeste 0 1011.2 0.5 35
2019-10-03 01:00:00 23.5 3 Noroeste 9 Noroeste 0 1011.4 1.5 35
2019-10-03 00:00:00 24.2 5 Norte 17 Oeste 0 1011.2 2 34
2019-10-02 23:00:00 25.8 12 Oeste 18 Oeste 0 1010.7 1.9 32
2019-10-02 22:00:00 26 5 Noroeste 15 Noroeste 0 1009.9 1.4 29
2019-10-02 21:00:00 27.3 7 Noroeste 19 Noroeste 0 1009.2 0.9 26
2019-10-02 20:00:00 28.3 8 Noroeste 28 Noroeste 0 1008.8 0.3 25
2019-10-02 19:00:00 29.4 11 Noroeste 31 Noroeste 0 1008.5 0.1 25
2019-10-02 18:00:00 30.8 13 Noroeste 33 Noroeste 0 1008.3 -0.2 24
2019-10-02 17:00:00 31.2 16 Noroeste 35 Noroeste 0 1008.5 -0.2 26
2019-10-02 16:00:00 31.2 17 Noroeste 36 Oeste 0 1008.4 -0.5 28
2019-10-02 15:00:00 31 16 Noroeste 39 Noroeste 0 1008.5 -1.1 31
2019-10-02 14:00:00 30.2 18 Oeste 33 Oeste 0 1008.7 -1.5 31
2019-10-02 13:00:00 30.6 12 Oeste 30 Oeste 0 1008.9 -1.2 33
2019-10-02 12:00:00 28 15 Oeste 30 Oeste 0 1009.6 -0.2 38
2019-10-02 11:00:00 26 15 Oeste 28 Oeste 0 1010.2 0.5 44
2019-10-02 10:00:00 23.3 17 Oeste 27 Oeste 0 1010.1 0.6 49
2019-10-02 09:00:00 21.5 14 Oeste 23 Oeste 0 1009.8 0.3 52
2019-10-02 08:00:00 22 17 Oeste 32 Oeste 0 1009.7 0.4 50
2019-10-02 07:00:00 22.2 16 Oeste 27 Oeste 0 1009.5 0.5 49
2019-10-02 06:00:00 22.7 12 Oeste 28 Noroeste 0 1009.5 0.1 47
2019-10-02 05:00:00 23.8 10 Noroeste 32 Noroeste 0 1009.3 -0.1 44
2019-10-02 04:00:00 24.7 16 Noroeste 32 Oeste 0 1009 -0.3 43
2019-10-02 03:00:00 24.8 16 Oeste 27 Oeste 0 1009.4 0.4 44
2019-10-02 02:00:00 24.9 10 Oeste 22 Noroeste 0 1009.4 0.6 44
2019-10-02 01:00:00 25.7 11 Noroeste 35 Oeste 0 1009.3 1.4 43
2019-10-02 00:00:00 26.2 19 Oeste 31 Noroeste 0 1009 1.7 43
2019-10-01 23:00:00 27.5 13 Oeste 33 Noroeste 0 1008.8 1.7 38
2019-10-01 22:00:00 28.6 12 Noroeste 22 Oeste 0 1007.9 1 29
2019-10-01 21:00:00 29.6 10 Oeste 24 Oeste 0 1007.3 0.8 25
2019-10-01 20:00:00 30.4 12 Noroeste 22 Oeste 0 1007.1 0.7 22
2019-10-01 19:00:00 31.6 12 Oeste 35 Oeste 0 1006.9 0.4 18
2019-10-01 18:00:00 33.1 20 Oeste 32 Oeste 0 1006.5 -0.2 16
2019-10-01 17:00:00 34.1 16 Oeste 37 Oeste 0 1006.4 -1.1 16
2019-10-01 16:00:00 34 20 Oeste 33 Noroeste 0 1006.5 -1.3 18
2019-10-01 15:00:00 34.4 16 Oeste 32 Oeste 0 1006.7 -1.6 18
2019-10-01 14:00:00 33.3 11 Noroeste 30 Oeste 0 1007.5 -1.1 18
2019-10-01 13:00:00 32.1 10 Noroeste 26 Norte 0 1007.8 -0.6 19
2019-10-01 12:00:00 30.5 10 Oeste 18 Oeste 0 1008.3 -0.1 32
2019-10-01 11:00:00 26.9 8 Oeste 13 Oeste 0 1008.6 0.4 42
2019-10-01 10:00:00 22.2 5 Oeste 9 Oeste 0 1008.4 0.7 64
2019-10-01 09:00:00 18.7 4 Oeste 8 Oeste 0 1008.4 0.3 83
2019-10-01 08:00:00 18.9 6 Oeste 11 Oeste 0 1008.2 -0.1 79
2019-10-01 07:00:00 19.9 5 Noroeste 9 Noroeste 0 1007.7 -1.2 77
2019-10-01 06:00:00 19.4 4 Noroeste 8 Noroeste 0 1008.1 -1.1 86
2019-10-01 05:00:00 19.7 3 Norte 5 Oeste 0 1008.3 -0.9 90
2019-10-01 04:00:00 19.9 3 Oeste 4 Oeste 0 1008.9 -0.2 88
2019-10-01 03:00:00 20.4 2 Nordeste 6 Este 0 1009.2 0.2 88
2019-10-01 02:00:00 20.8 4 Este 5 Este 0 1009.2 0 86
2019-10-01 01:00:00 21 0 Calma 2 Sudeste 0 1009.1 0 85
2019-10-01 00:00:00 21.3 0 Calma 2 Oeste 0 1009 0.2 83
2019-09-30 23:00:00 21.7 0 Calma 3 Sudeste 0 1009.2 0.5 80
2019-09-30 22:00:00 22.1 0 Calma 5 Sur 0 1009.1 0.5 77
2019-09-30 21:00:00 22.7 5 Sur 9 Sudeste 0 1008.8 0.2 73
2019-09-30 20:00:00 23.7 6 Sudeste 13 Sudeste 0 1008.7 -0.5 64
2019-09-30 19:00:00 25.8 8 Sudeste 15 Sur 0 1008.6 -0.9 53
2019-09-30 18:00:00 27.2 8 Sudeste 22 Nordeste 0 1008.6 -1.3 50
2019-09-30 17:00:00 25.3 13 Este 24 Sudeste 0 1009.2 -1.6 68
2019-09-30 16:00:00 25.7 12 Sudeste 19 Este 0 1009.5 -1.6 59
2019-09-30 15:00:00 26.1 12 Sudeste 20 Sudeste 0 1009.9 -1.7 59
2019-09-30 14:00:00 26.2 12 Sudeste 18 Sudeste 0 1010.8 -0.6 59
2019-09-30 13:00:00 26.6 8 Sudeste 14 Sudeste 0 1011.1 -0.4 56
2019-09-30 12:00:00 25.3 9 Sudeste 15 Sudeste 0 1011.6 0.3 64
2019-09-30 11:00:00 24.8 4 Sur 6 Sudoeste 0 1011.4 0.5 56
2019-09-30 10:00:00 21.6 4 Oeste 7 Oeste 0 1011.5 0.9 74
2019-09-30 09:00:00 19.5 2 Oeste 9 Noroeste 0 1011.3 0.6 79
2019-09-30 08:00:00 19.4 6 Noroeste 11 Noroeste 0 1010.9 0.1 77
2019-09-30 07:00:00 19.6 5 Noroeste 11 Noroeste 0 1010.6 -0.7 80
2019-09-30 06:00:00 19.4 6 Noroeste 12 Oeste 0 1010.7 -1.1 82
2019-09-30 05:00:00 18.8 3 Oeste 6 Noroeste 0 1010.8 -1.1 86
2019-09-30 04:00:00 19.7 4 Noroeste 8 Noroeste 0 1011.3 -0.6 89
2019-09-30 03:00:00 19.8 3 Oeste 6 Oeste 0 1011.8 -0.1 91
2019-09-30 02:00:00 20.2 2 Oeste 4 Noroeste 0 1011.9 0.1 89
2019-09-30 01:00:00 20.8 0 Calma 4 Nordeste 0 1011.9 0.3 89
2019-09-30 00:00:00 21.3 4 Nordeste 5 Nordeste 0 1011.9 0.7 89
2019-09-29 23:00:00 21.6 4 Nordeste 6 Sudeste 0 1011.8 0.8 89
2019-09-29 22:00:00 22 5 Este 12 Este 0 1011.6 0.6 88
2019-09-29 21:00:00 22.4 7 Este 13 Sudeste 0 1011.2 0.1 85
2019-09-29 20:00:00 23.3 8 Sudeste 13 Sudeste 0 1011 -0.6 80
2019-09-29 19:00:00 24.4 10 Sudeste 18 Sudeste 0 1011 -0.9 71
2019-09-29 18:00:00 25.7 11 Sudeste 18 Sudeste 0 1011.1 -1.4 64
2019-09-29 17:00:00 27.1 10 Sudeste 18 Sudeste 0 1011.6 -1.8 58
2019-09-29 16:00:00 27 10 Sudeste 18 Sudeste 0 1011.9 -2 58
2019-09-29 15:00:00 27.1 9 Sudeste 17 Sudeste 0 1012.5 -1.6 58
2019-09-29 14:00:00 27.3 10 Sudeste 19 Sudeste 0 1013.4 -0.6 58
2019-09-29 13:00:00 26.7 11 Sudeste 18 Sur 0 1013.9 0.5 59
2019-09-29 12:00:00 25.2 9 Sudeste 18 Sudeste 0 1014.1 1.1 64
2019-09-29 11:00:00 24.4 7 Sudeste 14 Sudeste 0 1014 1.6 62
2019-09-29 10:00:00 22.6 4 Sudeste 9 Norte 0 1013.4 1.2 61
2019-09-29 09:00:00 18.3 0 Calma 10 Oeste 0 1013 0.6 80
2019-09-29 08:00:00 18.2 5 Oeste 10 Oeste 0 1012.4 -0.4 77
2019-09-29 07:00:00 18.7 7 Oeste 12 Noroeste 0 1012.2 -1.1 73
2019-09-29 06:00:00 19 5 Noroeste 12 Oeste 0 1012.4 -1.3 73
2019-09-29 05:00:00 19.2 4 Noroeste 10 Noroeste 0 1012.8 -0.8 76
2019-09-29 04:00:00 19.6 6 Noroeste 9 Oeste 0 1013.3 -0.5 85
2019-09-29 03:00:00 19.5 5 Noroeste 8 Noroeste 0 1013.7 0.1 91
2019-09-29 02:00:00 20.6 3 Noroeste 6 Noroeste 0 1013.6 0 93
2019-09-29 01:00:00 20.9 2 Oeste 4 Oeste 0 1013.8 0.8 92
2019-09-29 00:00:00 21.5 0 Calma 4 Sudeste 0 1013.6 1.1 92
2019-09-28 23:00:00 21.7 2 Sudeste 7 Sudeste 0 1013.6 1.5 91
2019-09-28 22:00:00 22.2 4 Sudeste 10 Este 0 1013 1.2 88
2019-09-28 21:00:00 22.3 6 Este 13 Sudeste 0 1012.5 0.9 83
2019-09-28 20:00:00 23.1 10 Sudeste 13 Sudeste 0 1012.1 0.1 74
2019-09-28 19:00:00 25 9 Sudeste 14 Sudeste 0 1011.8 -0.8 55
2019-09-28 18:00:00 26.3 9 Sudeste 18 Sudeste 0 1011.6 -1.5 50
2019-09-28 17:00:00 26.7 11 Sudeste 19 Este 0 1012 -1.6 47
2019-09-28 16:00:00 25.8 11 Sudeste 19 Sudeste 0 1012.6 -1.4 58
2019-09-28 15:00:00 25.2 13 Sudeste 19 Sudeste 0 1013.1 -1.1 62
2019-09-28 14:00:00 25.9 10 Sudeste 17 Sur 0 1013.6 -0.4 64
2019-09-28 13:00:00 24.3 11 Sudeste 16 Este 0 1014 0.6 70
2019-09-28 12:00:00 23.7 10 Sudeste 15 Sudeste 0 1014.2 1.1 70
2019-09-28 11:00:00 21.7 5 Sudeste 10 Sudeste 0 1014 1.5 89
2019-09-28 10:00:00 19.5 2 Sudoeste 5 Sudoeste 0 1013.4 1.5 96
2019-09-28 09:00:00 18.4 0 Calma 6 Sudoeste 0 1013.1 1.5 96
2019-09-28 08:00:00 18.6 4 Oeste 9 Oeste 0 1012.5 0.6 96
2019-09-28 07:00:00 18 4 Oeste 10 Noroeste 0 1011.9 -0.2 96
2019-09-28 06:00:00 19.3 7 Oeste 11 Oeste 0 1011.6 -0.9 96
2019-09-28 05:00:00 19.7 6 Noroeste 12 Noroeste 0 1011.9 -1.1 95
2019-09-28 04:00:00 20.1 5 Noroeste 8 Oeste 0 1012.1 -1 94
2019-09-28 03:00:00 20.3 3 Noroeste 6 Noroeste 0 1012.5 -0.7 94
2019-09-28 02:00:00 20.9 0 Calma 3 Sudoeste 0 1013 0.2 94
2019-09-28 01:00:00 21 0 Calma 9 Sudeste 0 1013.1 0.8 94
2019-09-28 00:00:00 21.4 6 Sudeste 9 Sudeste 0 1013.2 1.5 93
2019-09-27 23:00:00 21.7 6 Sudeste 11 Sudeste 0 1012.8 1.6 92
2019-09-27 22:00:00 22 7 Sudeste 14 Este 0 1012.3 1.5 91
2019-09-27 21:00:00 22.2 10 Este 15 Este 0 1011.7 0.8 89
2019-09-27 20:00:00 23 11 Sudeste 16 Sudeste 0 1011.2 -0.1 80
2019-09-27 19:00:00 24.3 9 Sudeste 16 Este 0 1010.8 -0.9 73
2019-09-27 18:00:00 25.2 10 Sudeste 17 Sudeste 0 1010.9 -1.6 68
2019-09-27 17:00:00 26 12 Sudeste 19 Sudeste 0 1011.3 -1.9 68
2019-09-27 16:00:00 26 12 Sudeste 20 Sudeste 0 1011.7 -1.8 67
2019-09-27 15:00:00 26.9 11 Sudeste 19 Sudeste 0 1012.5 -1.1 65
2019-09-27 14:00:00 26 10 Sudeste 19 Sudeste 0 1013.2 -0.2 70
2019-09-27 13:00:00 25 13 Sudeste 21 Sudeste 0 1013.5 0.3 70
2019-09-27 12:00:00 25.9 11 Sudeste 19 Sudeste 0 1013.6 0.4 68
2019-09-27 11:00:00 25.2 5 Sudoeste 10 Sudoeste 0 1013.4 0.5 65
2019-09-27 10:00:00 22.8 4 Oeste 9 Oeste 0 1013.2 0.5 70
2019-09-27 09:00:00 20.3 6 Oeste 13 Oeste 0 1013.2 0.4 85
2019-09-27 08:00:00 19.9 6 Noroeste 10 Noroeste 0 1012.9 0.2 85
2019-09-27 07:00:00 19.6 4 Noroeste 9 Noroeste 0 1012.7 -0.4 88
2019-09-27 06:00:00 19.8 5 Noroeste 9 Noroeste 0 1012.8 -0.7 89
2019-09-27 05:00:00 20.2 6 Oeste 10 Oeste 0 1012.7 -0.9 89
2019-09-27 04:00:00 20.5 4 Oeste 6 Oeste 0 1013.1 -0.7 88
2019-09-27 03:00:00 21 5 Noroeste 8 Noroeste 0 1013.5 -0.1 88
2019-09-27 02:00:00 21.3 3 Noroeste 5 Noroeste 0 1013.6 0.3 88
2019-09-27 01:00:00 22 0 Calma 8 Sudeste 0 1013.8 1.2 89
2019-09-27 00:00:00 22.3 5 Sudeste 10 Sudeste 0 1013.6 1.6 88
2019-09-26 23:00:00 22.6 6 Sudeste 9 Sudeste 0 1013.3 1.6 86
2019-09-26 22:00:00 22.9 5 Sudeste 9 Sudeste 0 1012.6 1 83
2019-09-26 21:00:00 23.2 7 Sudeste 12 Sudeste 0 1012 0.6 82
2019-09-26 20:00:00 24.1 7 Sudeste 15 Sudeste 0 1011.7 0 71
2019-09-26 19:00:00 25.6 9 Sudeste 17 Este 0 1011.6 -0.6 64
2019-09-26 18:00:00 26.6 10 Sudeste 18 Sudeste 0 1011.4 -1.2 62
2019-09-26 17:00:00 26.5 11 Sudeste 21 Sudeste 0 1011.7 -1.4 65
2019-09-26 16:00:00 27 14 Sudeste 24 Este 0 1012.2 -1.4 64
2019-09-26 15:00:00 26.7 15 Sudeste 22 Este 0 1012.6 -1 67
2019-09-26 14:00:00 26.7 13 Sudeste 21 Este 0 1013.1 -0.1 65
2019-09-26 13:00:00 26.7 13 Sudeste 21 Sur 0 1013.6 0.8 62
2019-09-26 12:00:00 27 10 Sudeste 18 Sudeste 0 1013.6 1.3 61
2019-09-26 11:00:00 26.6 2 Sur 8 Sudeste 0 1013.2 1.4 50
2019-09-26 10:00:00 23.2 7 Sudoeste 9 Sudoeste 0 1012.8 1.4 55
2019-09-26 09:00:00 21 4 Noroeste 9 Norte 0 1012.3 1.4 58
2019-09-26 08:00:00 20.3 5 Noroeste 12 Norte 0 1011.8 1 62
2019-09-26 07:00:00 20 9 Oeste 12 Oeste 0 1011.4 0.8 73
2019-09-26 06:00:00 21.5 3 Noroeste 9 Noroeste 0 1010.9 0.5 67
2019-09-26 05:00:00 21.5 4 Oeste 7 Oeste 0 1010.8 0.9 83
2019-09-26 04:00:00 22.5 6 Este 15 Este 0 1010.6 0.8 83
2019-09-26 03:00:00 23 10 Este 17 Este 0 1010.4 0.9 79
2019-09-26 02:00:00 24.6 8 Noroeste 20 Oeste 0 1009.9 0.6 35
2019-09-26 01:00:00 25.4 10 Oeste 21 Noroeste 0 1009.8 1.1 34
2019-09-26 00:00:00 26.5 10 Oeste 21 Oeste 0 1009.5 1.3 33
2019-09-25 23:00:00 27.5 10 Oeste 18 Noroeste 0 1009.3 1.4 32
2019-09-25 22:00:00 28.1 7 Noroeste 18 Noroeste 0 1008.7 1 32
2019-09-25 21:00:00 29.2 6 Noroeste 22 Oeste 0 1008.2 0.6 31
2019-09-25 20:00:00 30.7 8 Noroeste 24 Noroeste 0 1007.9 0.2 28
2019-09-25 19:00:00 32 8 Noroeste 24 Noroeste 0 1007.7 -0.4 26
2019-09-25 18:00:00 33.3 9 Noroeste 26 Noroeste 0 1007.6 -1.1 25
2019-09-25 17:00:00 33.7 13 Noroeste 24 Oeste 0 1007.7 -1.6 26
2019-09-25 16:00:00 33.6 10 Noroeste 28 Oeste 0 1008.1 -1.8 28
2019-09-25 15:00:00 33 13 Noroeste 29 Oeste 0 1008.7 -1.7 29
2019-09-25 14:00:00 31.9 15 Oeste 32 Oeste 0 1009.3 -1.2 34
2019-09-25 13:00:00 30.7 18 Oeste 36 Oeste 0 1009.9 -0.4 43
2019-09-25 12:00:00 28.9 18 Oeste 34 Oeste 0 1010.4 0.2 50
2019-09-25 11:00:00 26.9 16 Oeste 26 Oeste 0 1010.5 0.6 58
2019-09-25 10:00:00 25.3 9 Oeste 21 Oeste 0 1010.3 0.3 59
2019-09-25 09:00:00 23.3 8 Oeste 19 Oeste 0 1010.2 0.1 64
2019-09-25 08:00:00 22.5 10 Oeste 24 Oeste 0 1009.9 0 65
2019-09-25 07:00:00 22.8 14 Oeste 23 Oeste 0 1010 0.1 59
2019-09-25 06:00:00 22.7 13 Oeste 21 Oeste 0 1010.1 0.1 56
2019-09-25 05:00:00 23.6 12 Oeste 20 Oeste 0 1009.9 -0.2 52
2019-09-25 04:00:00 23.7 12 Oeste 22 Oeste 0 1009.9 -0.4 50
2019-09-25 03:00:00 25.6 7 Noroeste 19 Noroeste 0 1010 -0.5 43
2019-09-25 02:00:00 25.3 8 Noroeste 15 Noroeste 0 1010.1 -0.7 43
2019-09-25 01:00:00 24.5 8 Noroeste 14 Noroeste 0 1010.3 -0.4 46
2019-09-25 00:00:00 23.7 6 Noroeste 13 Noroeste 0 1010.5 0.2 59
2019-09-24 23:00:00 21.9 4 Noroeste 8 Norte 0 1010.8 0.6 74
2019-09-24 22:00:00 22.2 5 Sudoeste 6 Oeste 0 1010.7 0.7 73
2019-09-24 21:00:00 23 2 Sur 12 Sudeste 0 1010.3 -0.1 65
2019-09-24 20:00:00 24.1 8 Sudeste 14 Sudeste 0 1010.2 -0.6 58
2019-09-24 19:00:00 25.5 8 Este 19 Este 0 1010 -1.3 55
2019-09-24 18:00:00 25.2 13 Este 23 Este 0 1010.4 -1.5 59
2019-09-24 17:00:00 25.7 15 Este 23 Sudeste 0 1010.8 -1.9 58
2019-09-24 16:00:00 26.8 13 Sudeste 23 Sudeste 0 1011.3 -1.7 56
2019-09-24 15:00:00 26.5 12 Este 24 Este 0 1011.9 -1.7 53
2019-09-24 14:00:00 27.3 13 Este 21 Este 0 1012.7 -1.2 45
2019-09-24 13:00:00 30.3 9 Sudeste 16 Sudeste 0 1013 -0.9 37
2019-09-24 12:00:00 27.4 8 Oeste 17 Oeste 0 1013.6 -0.2 42
2019-09-24 11:00:00 25 12 Sudoeste 17 Oeste 0 1013.9 0.1 47
2019-09-24 10:00:00 21.5 11 Oeste 16 Sudoeste 0 1013.9 0.3 59
2019-09-24 09:00:00 19.3 6 Oeste 12 Noroeste 0 1013.8 0.2 62
2019-09-24 08:00:00 17.5 6 Oeste 9 Oeste 0 1013.8 0.1 68
2019-09-24 07:00:00 17.8 7 Oeste 10 Oeste 0 1013.6 -0.2 68
2019-09-24 06:00:00 17.8 5 Noroeste 10 Sudoeste 0 1013.6 -0.6 68
2019-09-24 05:00:00 18.5 5 Oeste 10 Noroeste 0 1013.7 -0.4 65
2019-09-24 04:00:00 18.4 2 Noroeste 6 Noroeste 0 1013.8 -0.5 70
2019-09-24 03:00:00 19.2 3 Noroeste 6 Noroeste 0 1014.2 0 67
2019-09-24 02:00:00 20.1 3 Noroeste 4 Noroeste 0 1014.1 0 70
2019-09-24 01:00:00 20.6 0 Calma 3 Oeste 0 1014.3 0.5 68
2019-09-24 00:00:00 21.2 0 Calma 4 Sur 0 1014.2 1.1 65
2019-09-23 23:00:00 21.8 2 Sudeste 6 Sudeste 0 1014.1 1.5 62
2019-09-23 22:00:00 22.4 4 Sudeste 8 Este 0 1013.8 1.5 59
2019-09-23 21:00:00 23.1 4 Este 10 Sudeste 0 1013.1 0.7 53
2019-09-23 20:00:00 23.9 8 Sudeste 13 Este 0 1012.6 0.6 50
2019-09-23 19:00:00 25 8 Este 16 Sudeste 0 1012.3 -0.2 49
2019-09-23 18:00:00 26.1 10 Este 15 Este 0 1012.4 -0.3 43
2019-09-23 17:00:00 28.2 8 Sudeste 15 Sudeste 0 1012 -1.1 37
2019-09-23 16:00:00 26.8 10 Sudeste 18 Sudeste 0 1012.5 -0.5 49
2019-09-23 15:00:00 26.5 12 Sudeste 23 Sudeste 0 1012.7 -0.5 47
2019-09-23 14:00:00 27.4 14 Sudeste 21 Sudeste 0 1013.1 -0.2 46
2019-09-23 13:00:00 29.5 9 Sur 23 Sudoeste 0 1013 0 38
2019-09-23 12:00:00 27.1 15 Oeste 21 Oeste 0 1013.2 0.3 45
2019-09-23 11:00:00 24.8 14 Oeste 21 Oeste 0 1013.3 0.9 52
2019-09-23 10:00:00 22.7 11 Oeste 18 Noroeste 0 1013 1.4 58
2019-09-23 09:00:00 20.1 9 Noroeste 18 Oeste 0 1012.9 1.5 64
2019-09-23 08:00:00 19.6 10 Noroeste 21 Oeste 0 1012.4 1.3 64
2019-09-23 07:00:00 19.4 11 Oeste 21 Oeste 0 1011.6 0.6 64
2019-09-23 06:00:00 20 12 Oeste 23 Oeste 0 1011.4 -0.1 59
2019-09-23 05:00:00 20.6 10 Oeste 26 Noroeste 0 1011.1 -0.3 58
2019-09-23 04:00:00 21.1 14 Oeste 22 Oeste 0 1011 -0.6 53
2019-09-23 03:00:00 21.7 10 Oeste 17 Oeste 0 1011.5 0.2 50
2019-09-23 02:00:00 22.4 9 Oeste 18 Oeste 0 1011.4 0.4 47
2019-09-23 01:00:00 22.8 9 Oeste 17 Oeste 0 1011.6 1.2 45
2019-09-23 00:00:00 23.5 9 Oeste 19 Oeste 0 1011.3 1.7 41
2019-09-22 23:00:00 24.4 7 Oeste 14 Noroeste 0 1011 2.1 41
2019-09-22 22:00:00 25.1 7 Noroeste 25 Noroeste 0 1010.4 1.8 40
2019-09-22 21:00:00 26.1 9 Noroeste 26 Norte 0 1009.6 1.7 34
2019-09-22 20:00:00 27.3 8 Noroeste 22 Noroeste 0 1008.9 1 34
2019-09-22 19:00:00 28.9 8 Noroeste 20 Norte 0 1008.6 0.6 32
2019-09-22 18:00:00 29.6 6 Norte 16 Noroeste 0 1007.9 -0.3 43
2019-09-22 17:00:00 30.3 5 Noroeste 19 Noroeste 0 1007.9 -0.6 44
2019-09-22 16:00:00 30.8 5 Norte 22 Oeste 0 1008 -0.9 43
2019-09-22 15:00:00 31.2 9 Oeste 22 Sudoeste 0 1008.2 -1.1 42
2019-09-22 14:00:00 30.7 12 Sur 19 Sudoeste 0 1008.5 -1.1 41
2019-09-22 13:00:00 29.3 5 Sudoeste 17 Oeste 0 1008.9 -0.6 46
2019-09-22 12:00:00 27.3 10 Oeste 17 Oeste 0 1009.3 0.2 55
2019-09-22 11:00:00 24.8 9 Sudoeste 13 Sudoeste 0 1009.6 0.7 67
2019-09-22 10:00:00 22.6 3 Sudoeste 9 Oeste 0 1009.5 1.1 82
2019-09-22 09:00:00 20.1 5 Oeste 8 Oeste 0 1009.1 1.1 91
2019-09-22 08:00:00 19.5 4 Oeste 7 Noroeste 0 1008.9 0.8 91
2019-09-22 07:00:00 19.8 2 Noroeste 7 Oeste 0 1008.4 -0.1 89
2019-09-22 06:00:00 20.7 3 Noroeste 6 Noroeste 0 1008 -0.5 86
2019-09-22 05:00:00 20.8 3 Noroeste 6 Noroeste 0 1008.1 -0.4 85
2019-09-22 04:00:00 21.3 2 Nordeste 5 Nordeste 0 1008.5 0.1 83
2019-09-22 03:00:00 21.7 3 Este 4 Este 0 1008.5 -0.1 80
2019-09-22 02:00:00 21.9 0 Calma 4 Sudoeste 0 1008.5 0 76
2019-09-22 01:00:00 22.6 0 Calma 6 Oeste 0 1008.4 0.1 73
2019-09-22 00:00:00 23 0 Calma 6 Nordeste 0 1008.6 1 70
2019-09-21 23:00:00 23.5 4 Este 12 Nordeste 0 1008.5 1.3 68
2019-09-21 22:00:00 23.5 6 Este 12 Este 0 1008.3 1.2 67
2019-09-21 21:00:00 23.3 8 Este 13 Este 0 1007.6 0.3 68
2019-09-21 20:00:00 23.6 8 Este 16 Sudeste 0 1007.2 -0.1 70
2019-09-21 19:00:00 24.3 12 Sudeste 18 Sudeste 0 1007.1 -0.5 68
2019-09-21 18:00:00 25 13 Sudeste 18 Sudeste 0 1007.3 -0.5 68
2019-09-21 17:00:00 26.7 11 Sudeste 19 Sur 0 1007.3 -1 65
2019-09-21 16:00:00 25.9 13 Sudeste 18 Sudeste 0 1007.6 -1.4 70
2019-09-21 15:00:00 27 11 Sudeste 21 Este 0 1007.8 -1.2 65
2019-09-21 14:00:00 26.4 10 Sudeste 18 Sudeste 0 1008.3 -0.4 70
2019-09-21 13:00:00 25.4 8 Sudeste 14 Sudeste 0 1009 0.9 77
2019-09-21 12:00:00 25.1 9 Sur 13 Sudeste 0 1009 1.3 82
2019-09-21 11:00:00 24 5 Sudoeste 9 Sur 0 1008.7 1.4 89
2019-09-21 10:00:00 23 0 Calma 5 Oeste 0 1008.1 0.9 93
2019-09-21 09:00:00 22.2 2 Oeste 6 Oeste 0 1007.7 0.5 93
2019-09-21 08:00:00 22 4 Oeste 5 Oeste 0 1007.3 0.2 92
2019-09-21 07:00:00 22.4 0 Calma 7 Oeste 0 1007.2 -0.2 91
2019-09-21 06:00:00 22.7 4 Oeste 7 Oeste 0 1007.2 -0.6 89
2019-09-21 05:00:00 23.4 4 Este 7 Sudeste 0 1007.1 -1.3 89
2019-09-21 04:00:00 23.5 4 Sudeste 8 Sudeste 0 1007.4 -1.4 88
2019-09-21 03:00:00 23.8 5 Este 10 Nordeste 0 1007.8 -1.3 85
2019-09-21 02:00:00 23.5 5 Este 10 Este 0 1008.4 -0.8 85
2019-09-21 01:00:00 23.8 4 Este 14 Sudeste 0 1008.8 0 83
2019-09-21 00:00:00 23.9 8 Sudeste 13 Este 0 1009.1 0.5 82
2019-09-20 23:00:00 23.9 9 Sudeste 18 Sudeste 0 1009.2 1.3 80
2019-09-20 22:00:00 24.2 7 Sudeste 13 Este 0 1008.8 1.1 78
2019-09-20 21:00:00 24.4 3 Sudeste 12 Sudeste 0 1008.6 0.1 76
2019-09-20 20:00:00 24.6 6 Sudeste 15 Este 0 1007.9 -0.4 74
2019-09-20 19:00:00 25.1 9 Sudeste 18 Sudeste 0 1007.7 -0.8 73
2019-09-20 18:00:00 26.3 8 Sur 16 Sur 0 1008.5 -0.5 68
2019-09-20 17:00:00 24.9 10 Sudeste 21 Sudeste 0 1008.3 -1.2 74
2019-09-20 16:00:00 25 12 Sudeste 22 Sudeste 0 1008.5 -1.3 77
2019-09-20 15:00:00 25.5 15 Sudeste 28 Sudeste 0 1009 -1.1 76
2019-09-20 14:00:00 25.5 20 Sudeste 31 Sudeste 0 1009.5 -0.7 76
2019-09-20 13:00:00 25.6 13 Sudeste 30 Sudeste 0 1009.8 0.3 82
2019-09-20 12:00:00 25.9 18 Sudeste 28 Sudeste 0 1010.1 0.7 80
2019-09-20 11:00:00 23.9 13 Sudeste 22 Sudeste 0 1010.2 1.4 86
2019-09-20 10:00:00 24.2 9 Sudeste 15 Sudeste 0 1009.5 1 88
2019-09-20 09:00:00 22.9 0 Calma 5 Norte 0 1009.4 0.5 91
2019-09-20 08:00:00 22.2 0 Calma 11 Oeste 0 1008.8 -0.9 90
2019-09-20 07:00:00 21.5 7 Oeste 10 Oeste 0 1008.5 -1.9 92
2019-09-20 06:00:00 21.9 4 Oeste 6 Oeste 0 1008.9 -1.8 92
2019-09-20 05:00:00 22.1 0 Calma 7 Sudoeste 0 1009.7 -0.9 92
2019-09-20 04:00:00 22.3 2 Sudoeste 5 Noroeste 0 1010.4 -0.1 92
2019-09-20 03:00:00 22.2 3 Noroeste 5 Noroeste 0 1010.7 0.3 92
2019-09-20 02:00:00 22.5 0 Calma 4 Este 0 1010.6 0.4 92
2019-09-20 01:00:00 22.7 0 Calma 5 Sudoeste 0 1010.5 0.5 91
2019-09-20 00:00:00 22.7 2 Sur 11 Sudeste 0 1010.4 1.1 89